sensor_id;sensor_type;location;lat;lon;timestamp;pressure;altitude;pressure_sealevel;temperature;humidity
74834;BME280;63361;52.384;20.930;2023-09-07T00:00:58;101578.16;;;12.01;100.00
74834;BME280;63361;52.384;20.930;2023-09-07T00:03:25;101570.22;;;11.84;100.00
74834;BME280;63361;52.384;20.930;2023-09-07T00:05:50;101576.38;;;11.80;100.00
74834;BME280;63361;52.384;20.930;2023-09-07T00:08:15;101576.34;;;11.75;100.00
74834;BME280;63361;52.384;20.930;2023-09-07T00:10:40;101576.34;;;11.75;100.00
74834;BME280;63361;52.384;20.930;2023-09-07T00:13:07;101585.94;;;11.87;100.00
74834;BME280;63361;52.384;20.930;2023-09-07T00:15:36;101589.75;;;11.91;100.00
74834;BME280;63361;52.384;20.930;2023-09-07T00:18:02;101578.53;;;11.78;100.00
74834;BME280;63361;52.384;20.930;2023-09-07T00:20:27;101576.78;;;11.67;100.00
74834;BME280;63361;52.384;20.930;2023-09-07T00:22:52;101589.25;;;11.68;100.00
74834;BME280;63361;52.384;20.930;2023-09-07T00:25:18;101528.19;;;11.40;100.00
74834;BME280;63361;52.384;20.930;2023-09-07T00:27:43;101590.97;;;11.79;100.00
74834;BME280;63361;52.384;20.930;2023-09-07T00:30:09;101587.34;;;11.68;100.00
74834;BME280;63361;52.384;20.930;2023-09-07T00:32:36;101559.88;;;11.49;100.00
74834;BME280;63361;52.384;20.930;2023-09-07T00:35:02;101580.25;;;11.62;100.00
74834;BME280;63361;52.384;20.930;2023-09-07T00:37:27;101578.91;;;11.59;100.00
74834;BME280;63361;52.384;20.930;2023-09-07T00:39:53;101582.63;;;11.53;100.00
74834;BME280;63361;52.384;20.930;2023-09-07T00:42:18;101597.00;;;11.86;100.00
74834;BME280;63361;52.384;20.930;2023-09-07T00:44:43;101596.19;;;11.85;100.00
74834;BME280;63361;52.384;20.930;2023-09-07T00:47:09;101580.81;;;11.64;100.00
74834;BME280;63361;52.384;20.930;2023-09-07T00:49:34;101582.06;;;11.51;100.00
74834;BME280;63361;52.384;20.930;2023-09-07T00:52:00;101588.03;;;11.53;100.00
74834;BME280;63361;52.384;20.930;2023-09-07T00:54:25;101594.28;;;11.54;100.00
74834;BME280;63361;52.384;20.930;2023-09-07T00:56:54;101604.06;;;11.60;100.00
74834;BME280;63361;52.384;20.930;2023-09-07T00:59:20;101583.72;;;11.52;100.00
74834;BME280;63361;52.384;20.930;2023-09-07T01:01:45;101588.31;;;11.52;100.00
74834;BME280;63361;52.384;20.930;2023-09-07T01:04:10;101582.38;;;11.55;100.00
74834;BME280;63361;52.384;20.930;2023-09-07T01:06:39;101580.09;;;11.42;100.00
74834;BME280;63361;52.384;20.930;2023-09-07T01:09:14;101599.13;;;11.52;100.00
74834;BME280;63361;52.384;20.930;2023-09-07T01:11:40;101586.66;;;11.51;100.00
74834;BME280;63361;52.384;20.930;2023-09-07T01:14:07;101589.53;;;11.39;100.00
74834;BME280;63361;52.384;20.930;2023-09-07T01:16:33;101595.97;;;11.33;100.00
74834;BME280;63361;52.384;20.930;2023-09-07T01:19:05;101588.88;;;11.27;100.00
74834;BME280;63361;52.384;20.930;2023-09-07T01:21:35;101583.72;;;11.25;100.00
74834;BME280;63361;52.384;20.930;2023-09-07T01:24:02;101561.91;;;11.05;100.00
74834;BME280;63361;52.384;20.930;2023-09-07T01:26:28;101599.13;;;11.25;100.00
74834;BME280;63361;52.384;20.930;2023-09-07T01:28:53;101591.53;;;11.22;100.00
74834;BME280;63361;52.384;20.930;2023-09-07T01:31:19;101591.22;;;11.18;100.00
74834;BME280;63361;52.384;20.930;2023-09-07T01:33:44;101586.03;;;11.12;100.00
74834;BME280;63361;52.384;20.930;2023-09-07T01:36:09;101601.75;;;11.15;100.00
74834;BME280;63361;52.384;20.930;2023-09-07T01:38:35;101586.97;;;11.01;100.00
74834;BME280;63361;52.384;20.930;2023-09-07T01:41:00;101604.94;;;11.12;100.00
74834;BME280;63361;52.384;20.930;2023-09-07T01:43:26;101585.03;;;10.96;100.00
74834;BME280;63361;52.384;20.930;2023-09-07T01:45:51;101595.03;;;10.96;100.00
74834;BME280;63361;52.384;20.930;2023-09-07T01:48:16;101599.41;;;11.02;100.00
74834;BME280;63361;52.384;20.930;2023-09-07T01:50:41;101594.81;;;11.02;100.00
74834;BME280;63361;52.384;20.930;2023-09-07T01:53:07;101594.78;;;10.97;100.00
74834;BME280;63361;52.384;20.930;2023-09-07T01:55:32;101605.63;;;11.02;100.00
74834;BME280;63361;52.384;20.930;2023-09-07T01:57:58;101590.63;;;10.89;100.00
74834;BME280;63361;52.384;20.930;2023-09-07T02:00:23;101588.94;;;10.83;100.00
74834;BME280;63361;52.384;20.930;2023-09-07T02:02:49;101591.09;;;10.81;100.00
74834;BME280;63361;52.384;20.930;2023-09-07T02:05:14;101577.25;;;10.78;100.00
74834;BME280;63361;52.384;20.930;2023-09-07T02:07:39;101577.25;;;10.78;100.00
74834;BME280;63361;52.384;20.930;2023-09-07T02:10:05;101597.31;;;10.82;100.00
74834;BME280;63361;52.384;20.930;2023-09-07T02:12:31;101588.56;;;10.75;100.00
74834;BME280;63361;52.384;20.930;2023-09-07T02:14:56;101585.03;;;10.74;100.00
74834;BME280;63361;52.384;20.930;2023-09-07T02:17:21;101595.03;;;10.74;100.00
74834;BME280;63361;52.384;20.930;2023-09-07T02:19:47;101601.81;;;10.76;100.00
74834;BME280;63361;52.384;20.930;2023-09-07T02:22:12;101606.91;;;10.95;100.00
74834;BME280;63361;52.384;20.930;2023-09-07T02:24:37;101594.66;;;10.87;100.00
74834;BME280;63361;52.384;20.930;2023-09-07T02:27:03;101599.66;;;11.00;100.00
74834;BME280;63361;52.384;20.930;2023-09-07T02:29:28;101601.66;;;10.83;100.00
74834;BME280;63361;52.384;20.930;2023-09-07T02:31:54;101594.78;;;10.75;100.00
74834;BME280;63361;52.384;20.930;2023-09-07T02:34:19;101605.09;;;10.78;100.00
74834;BME280;63361;52.384;20.930;2023-09-07T02:36:45;101611.22;;;10.74;100.00
74834;BME280;63361;52.384;20.930;2023-09-07T02:39:10;101611.72;;;10.71;100.00
74834;BME280;63361;52.384;20.930;2023-09-07T02:41:37;101622.19;;;10.84;100.00
74834;BME280;63361;52.384;20.930;2023-09-07T02:44:02;101615.19;;;10.88;100.00
74834;BME280;63361;52.384;20.930;2023-09-07T02:46:28;101615.66;;;10.80;100.00
74834;BME280;63361;52.384;20.930;2023-09-07T02:48:53;101621.78;;;10.75;100.00
74834;BME280;63361;52.384;20.930;2023-09-07T02:51:22;101621.72;;;10.70;100.00
74834;BME280;63361;52.384;20.930;2023-09-07T02:53:48;101618.56;;;10.56;100.00
74834;BME280;63361;52.384;20.930;2023-09-07T02:56:13;101608.13;;;10.43;100.00
74834;BME280;63361;52.384;20.930;2023-09-07T02:58:38;101602.97;;;10.42;100.00
74834;BME280;63361;52.384;20.930;2023-09-07T03:01:08;101623.84;;;10.46;100.00
74834;BME280;63361;52.384;20.930;2023-09-07T03:03:36;101601.47;;;10.29;100.00
74834;BME280;63361;52.384;20.930;2023-09-07T03:06:09;101618.59;;;10.40;100.00
74834;BME280;63361;52.384;20.930;2023-09-07T03:08:35;101605.72;;;10.25;100.00
74834;BME280;63361;52.384;20.930;2023-09-07T03:11:04;101627.78;;;10.39;100.00
74834;BME280;63361;52.384;20.930;2023-09-07T03:13:30;101615.28;;;10.33;100.00
74834;BME280;63361;52.384;20.930;2023-09-07T03:15:55;101623.28;;;10.28;100.00
74834;BME280;63361;52.384;20.930;2023-09-07T03:18:21;101631.72;;;10.31;100.00
74834;BME280;63361;52.384;20.930;2023-09-07T03:20:46;101631.16;;;10.29;100.00
74834;BME280;63361;52.384;20.930;2023-09-07T03:23:12;101618.34;;;10.19;100.00
74834;BME280;63361;52.384;20.930;2023-09-07T03:25:37;101635.78;;;10.17;100.00
74834;BME280;63361;52.384;20.930;2023-09-07T03:28:03;101621.09;;;10.08;100.00
74834;BME280;63361;52.384;20.930;2023-09-07T03:30:28;101617.59;;;10.07;100.00
74834;BME280;63361;52.384;20.930;2023-09-07T03:32:54;101620.53;;;10.06;100.00
74834;BME280;63361;52.384;20.930;2023-09-07T03:35:19;101637.84;;;10.10;100.00
74834;BME280;63361;52.384;20.930;2023-09-07T03:37:45;101619.28;;;9.97;100.00
74834;BME280;63361;52.384;20.930;2023-09-07T03:40:10;101624.19;;;10.00;100.00
74834;BME280;63361;52.384;20.930;2023-09-07T03:42:36;101620.91;;;9.98;100.00
74834;BME280;63361;52.384;20.930;2023-09-07T03:45:02;101618.72;;;9.95;100.00
74834;BME280;63361;52.384;20.930;2023-09-07T03:47:28;101638.59;;;10.05;100.00
74834;BME280;63361;52.384;20.930;2023-09-07T03:49:55;101629.59;;;10.00;100.00
74834;BME280;63361;52.384;20.930;2023-09-07T03:52:22;101624.44;;;9.98;100.00
74834;BME280;63361;52.384;20.930;2023-09-07T03:54:50;101625.75;;;9.96;100.00
74834;BME280;63361;52.384;20.930;2023-09-07T03:57:15;101631.72;;;9.98;100.00
74834;BME280;63361;52.384;20.930;2023-09-07T03:59:40;101625.09;;;9.88;100.00
74834;BME280;63361;52.384;20.930;2023-09-07T04:02:05;101633.78;;;9.91;100.00
74834;BME280;63361;52.384;20.930;2023-09-07T04:04:31;101642.16;;;9.94;100.00
74834;BME280;63361;52.384;20.930;2023-09-07T04:06:56;101635.13;;;9.93;100.00
74834;BME280;63361;52.384;20.930;2023-09-07T04:09:21;101631.66;;;9.93;100.00
74834;BME280;63361;52.384;20.930;2023-09-07T04:11:47;101627.56;;;9.90;100.00
74834;BME280;63361;52.384;20.930;2023-09-07T04:14:12;101630.75;;;10.04;100.00
74834;BME280;63361;52.384;20.930;2023-09-07T04:16:37;101646.59;;;10.17;100.00
74834;BME280;63361;52.384;20.930;2023-09-07T04:19:03;101645.06;;;10.21;100.00
74834;BME280;63361;52.384;20.930;2023-09-07T04:21:28;101644.97;;;10.33;100.00
74834;BME280;63361;52.384;20.930;2023-09-07T04:23:53;101623.88;;;10.30;100.00
74834;BME280;63361;52.384;20.930;2023-09-07T04:26:19;101632.84;;;10.52;100.00
74834;BME280;63361;52.384;20.930;2023-09-07T04:28:44;101639.25;;;10.89;100.00
74834;BME280;63361;52.384;20.930;2023-09-07T04:31:10;101639.28;;;11.97;100.00
74834;BME280;63361;52.384;20.930;2023-09-07T04:33:35;101648.81;;;12.99;100.00
74834;BME280;63361;52.384;20.930;2023-09-07T04:36:12;101648.22;;;13.54;100.00
74834;BME280;63361;52.384;20.930;2023-09-07T04:38:38;101646.59;;;14.09;100.00
74834;BME280;63361;52.384;20.930;2023-09-07T04:41:11;101657.97;;;14.57;100.00
74834;BME280;63361;52.384;20.930;2023-09-07T04:43:38;101666.69;;;15.23;100.00
74834;BME280;63361;52.384;20.930;2023-09-07T04:46:13;101659.44;;;15.97;100.00
74834;BME280;63361;52.384;20.930;2023-09-07T04:48:40;101663.59;;;16.76;100.00
74834;BME280;63361;52.384;20.930;2023-09-07T04:51:09;101664.34;;;17.43;100.00
74834;BME280;63361;52.384;20.930;2023-09-07T04:53:36;101642.78;;;17.98;100.00
74834;BME280;63361;52.384;20.930;2023-09-07T04:56:03;101645.34;;;18.95;100.00
74834;BME280;63361;52.384;20.930;2023-09-07T04:58:29;101638.66;;;19.73;100.00
74834;BME280;63361;52.384;20.930;2023-09-07T05:00:54;101654.06;;;20.67;100.00
74834;BME280;63361;52.384;20.930;2023-09-07T05:03:25;101654.91;;;21.33;100.00
74834;BME280;63361;52.384;20.930;2023-09-07T05:05:53;101654.56;;;22.12;95.14
74834;BME280;63361;52.384;20.930;2023-09-07T05:08:18;101649.09;;;23.18;79.96
74834;BME280;63361;52.384;20.930;2023-09-07T05:10:44;101658.94;;;23.69;72.15
74834;BME280;63361;52.384;20.930;2023-09-07T05:13:09;101667.03;;;24.07;69.05
74834;BME280;63361;52.384;20.930;2023-09-07T05:15:34;101672.22;;;24.20;65.36
74834;BME280;63361;52.384;20.930;2023-09-07T05:18:00;101664.13;;;23.49;66.42
74834;BME280;63361;52.384;20.930;2023-09-07T05:20:25;101673.50;;;23.90;65.95
74834;BME280;63361;52.384;20.930;2023-09-07T05:22:52;101674.69;;;24.34;63.49
74834;BME280;63361;52.384;20.930;2023-09-07T05:25:18;101681.31;;;24.54;62.54
74834;BME280;63361;52.384;20.930;2023-09-07T05:27:45;101660.00;;;24.91;60.97
74834;BME280;63361;52.384;20.930;2023-09-07T05:30:11;101672.00;;;25.72;57.99
74834;BME280;63361;52.384;20.930;2023-09-07T05:32:36;101669.22;;;25.72;55.92
74834;BME280;63361;52.384;20.930;2023-09-07T05:35:02;101669.06;;;26.08;55.46
74834;BME280;63361;52.384;20.930;2023-09-07T05:37:27;101672.75;;;25.84;55.09
74834;BME280;63361;52.384;20.930;2023-09-07T05:39:52;101674.88;;;26.19;54.16
74834;BME280;63361;52.384;20.930;2023-09-07T05:42:17;101685.69;;;26.08;54.94
74834;BME280;63361;52.384;20.930;2023-09-07T05:44:43;101694.78;;;26.68;52.03
74834;BME280;63361;52.384;20.930;2023-09-07T05:47:08;101672.16;;;26.35;54.15
74834;BME280;63361;52.384;20.930;2023-09-07T05:49:34;101677.91;;;26.14;53.49
74834;BME280;63361;52.384;20.930;2023-09-07T05:51:59;101688.47;;;25.68;56.71
74834;BME280;63361;52.384;20.930;2023-09-07T05:54:24;101690.19;;;25.73;56.98
74834;BME280;63361;52.384;20.930;2023-09-07T05:56:50;101692.00;;;26.37;54.14
74834;BME280;63361;52.384;20.930;2023-09-07T05:59:15;101685.41;;;25.45;56.88
74834;BME280;63361;52.384;20.930;2023-09-07T06:01:41;101682.00;;;24.63;59.38
74834;BME280;63361;52.384;20.930;2023-09-07T06:04:06;101690.84;;;22.61;68.42
74834;BME280;63361;52.384;20.930;2023-09-07T06:06:32;101696.78;;;21.90;73.82
74834;BME280;63361;52.384;20.930;2023-09-07T06:08:57;101691.22;;;23.68;66.98
74834;BME280;63361;52.384;20.930;2023-09-07T06:11:25;101684.75;;;24.75;61.35
74834;BME280;63361;52.384;20.930;2023-09-07T06:13:51;101691.88;;;25.49;57.21
74834;BME280;63361;52.384;20.930;2023-09-07T06:16:16;101696.66;;;26.64;54.03
74834;BME280;63361;52.384;20.930;2023-09-07T06:18:41;101708.47;;;27.43;51.29
74834;BME280;63361;52.384;20.930;2023-09-07T06:21:07;101706.00;;;28.34;48.27
74834;BME280;63361;52.384;20.930;2023-09-07T06:23:32;101711.28;;;28.01;48.55
74834;BME280;63361;52.384;20.930;2023-09-07T06:25:58;101698.13;;;29.09;45.34
74834;BME280;63361;52.384;20.930;2023-09-07T06:28:23;101711.63;;;29.36;45.84
74834;BME280;63361;52.384;20.930;2023-09-07T06:30:48;101706.75;;;29.86;43.01
74834;BME280;63361;52.384;20.930;2023-09-07T06:33:13;101703.56;;;27.72;48.35
74834;BME280;63361;52.384;20.930;2023-09-07T06:35:39;101699.06;;;25.14;56.71
74834;BME280;63361;52.384;20.930;2023-09-07T06:38:04;101698.38;;;23.40;64.32
74834;BME280;63361;52.384;20.930;2023-09-07T06:40:30;101698.25;;;23.07;68.24
74834;BME280;63361;52.384;20.930;2023-09-07T06:42:55;101699.13;;;22.52;71.14
74834;BME280;63361;52.384;20.930;2023-09-07T06:45:22;101697.19;;;22.53;72.06
74834;BME280;63361;52.384;20.930;2023-09-07T06:47:51;101704.19;;;22.88;70.04
74834;BME280;63361;52.384;20.930;2023-09-07T06:50:17;101696.63;;;22.76;69.25
74834;BME280;63361;52.384;20.930;2023-09-07T06:52:42;101688.16;;;23.40;67.11
74834;BME280;63361;52.384;20.930;2023-09-07T06:55:07;101704.13;;;23.97;63.71
74834;BME280;63361;52.384;20.930;2023-09-07T06:57:33;101703.88;;;22.90;68.83
74834;BME280;63361;52.384;20.930;2023-09-07T07:00:03;101706.25;;;22.53;72.45
74834;BME280;63361;52.384;20.930;2023-09-07T07:02:30;101699.72;;;22.11;74.81
74834;BME280;63361;52.384;20.930;2023-09-07T07:04:56;101698.72;;;21.98;75.11
74834;BME280;63361;52.384;20.930;2023-09-07T07:07:21;101699.03;;;21.45;77.37
74834;BME280;63361;52.384;20.930;2023-09-07T07:09:46;101706.59;;;21.22;83.64
74834;BME280;63361;52.384;20.930;2023-09-07T07:12:12;101701.47;;;21.38;81.54
74834;BME280;63361;52.384;20.930;2023-09-07T07:14:37;101704.53;;;21.88;80.29
74834;BME280;63361;52.384;20.930;2023-09-07T07:17:03;101711.41;;;22.55;75.09
74834;BME280;63361;52.384;20.930;2023-09-07T07:19:30;101718.00;;;22.71;72.00
74834;BME280;63361;52.384;20.930;2023-09-07T07:21:55;101717.72;;;22.55;73.24
74834;BME280;63361;52.384;20.930;2023-09-07T07:24:20;101721.00;;;23.25;70.63
74834;BME280;63361;52.384;20.930;2023-09-07T07:26:46;101714.00;;;24.76;63.20
74834;BME280;63361;52.384;20.930;2023-09-07T07:29:11;101726.84;;;27.67;53.56
74834;BME280;63361;52.384;20.930;2023-09-07T07:31:38;101726.50;;;29.44;46.14
74834;BME280;63361;52.384;20.930;2023-09-07T07:34:03;101737.19;;;30.76;42.68
74834;BME280;63361;52.384;20.930;2023-09-07T07:36:29;101731.88;;;31.70;39.99
74834;BME280;63361;52.384;20.930;2023-09-07T07:38:54;101740.22;;;34.11;35.22
74834;BME280;63361;52.384;20.930;2023-09-07T07:41:20;101739.31;;;35.66;33.05
74834;BME280;63361;52.384;20.930;2023-09-07T07:43:45;101725.72;;;36.22;31.18
74834;BME280;63361;52.384;20.930;2023-09-07T07:46:10;101736.09;;;34.37;33.83
74834;BME280;63361;52.384;20.930;2023-09-07T07:48:36;101735.91;;;34.62;33.33
74834;BME280;63361;52.384;20.930;2023-09-07T07:51:04;101745.13;;;35.11;31.72
74834;BME280;63361;52.384;20.930;2023-09-07T07:53:30;101741.69;;;36.02;31.04
74834;BME280;63361;52.384;20.930;2023-09-07T07:55:56;101738.34;;;35.46;32.06
74834;BME280;63361;52.384;20.930;2023-09-07T07:58:22;101746.72;;;35.53;32.05
74834;BME280;63361;52.384;20.930;2023-09-07T08:00:47;101746.34;;;36.42;30.69
74834;BME280;63361;52.384;20.930;2023-09-07T08:03:14;101746.06;;;36.60;29.92
74834;BME280;63361;52.384;20.930;2023-09-07T08:05:39;101748.16;;;37.69;28.38
74834;BME280;63361;52.384;20.930;2023-09-07T08:08:05;101742.88;;;39.08;27.24
74834;BME280;63361;52.384;20.930;2023-09-07T08:10:37;101741.31;;;38.75;26.99
74834;BME280;63361;52.384;20.930;2023-09-07T08:13:03;101745.38;;;37.26;28.59
74834;BME280;63361;52.384;20.930;2023-09-07T08:15:29;101742.84;;;37.31;29.15
74834;BME280;63361;52.384;20.930;2023-09-07T08:17:54;101734.91;;;37.66;28.08
74834;BME280;63361;52.384;20.930;2023-09-07T08:20:20;101740.63;;;37.43;28.86
74834;BME280;63361;52.384;20.930;2023-09-07T08:22:46;101729.59;;;38.60;27.32
74834;BME280;63361;52.384;20.930;2023-09-07T08:25:12;101737.72;;;38.22;28.31
74834;BME280;63361;52.384;20.930;2023-09-07T08:27:40;101732.09;;;37.26;29.29
74834;BME280;63361;52.384;20.930;2023-09-07T08:30:11;101743.00;;;37.84;28.37
74834;BME280;63361;52.384;20.930;2023-09-07T08:32:37;101733.31;;;36.79;29.28
74834;BME280;63361;52.384;20.930;2023-09-07T08:35:04;101738.63;;;36.73;29.54
74834;BME280;63361;52.384;20.930;2023-09-07T08:37:31;101735.50;;;36.14;30.39
74834;BME280;63361;52.384;20.930;2023-09-07T08:39:58;101729.50;;;36.12;30.17
74834;BME280;63361;52.384;20.930;2023-09-07T08:42:24;101726.28;;;36.40;29.73
74834;BME280;63361;52.384;20.930;2023-09-07T08:44:50;101733.97;;;36.63;30.25
74834;BME280;63361;52.384;20.930;2023-09-07T08:47:18;101727.88;;;36.91;29.66
74834;BME280;63361;52.384;20.930;2023-09-07T08:49:46;101727.03;;;37.77;28.27
74834;BME280;63361;52.384;20.930;2023-09-07T08:52:14;101743.75;;;35.98;30.16
74834;BME280;63361;52.384;20.930;2023-09-07T08:54:41;101748.75;;;36.94;29.66
74834;BME280;63361;52.384;20.930;2023-09-07T08:57:09;101743.81;;;36.21;30.49
74834;BME280;63361;52.384;20.930;2023-09-07T08:59:35;101732.78;;;35.42;31.52
74834;BME280;63361;52.384;20.930;2023-09-07T09:02:01;101723.38;;;34.74;31.93
74834;BME280;63361;52.384;20.930;2023-09-07T09:04:29;101729.88;;;33.98;33.37
74834;BME280;63361;52.384;20.930;2023-09-07T09:06:55;101730.41;;;33.64;34.10
74834;BME280;63361;52.384;20.930;2023-09-07T09:09:24;101726.34;;;33.86;34.35
74834;BME280;63361;52.384;20.930;2023-09-07T09:11:50;101709.34;;;34.77;32.51
74834;BME280;63361;52.384;20.930;2023-09-07T09:14:19;101727.25;;;35.69;31.12
74834;BME280;63361;52.384;20.930;2023-09-07T09:16:51;101730.88;;;35.32;32.30
74834;BME280;63361;52.384;20.930;2023-09-07T09:19:17;101729.66;;;33.57;34.43
74834;BME280;63361;52.384;20.930;2023-09-07T09:21:44;101713.66;;;33.50;34.41
74834;BME280;63361;52.384;20.930;2023-09-07T09:24:10;101720.53;;;35.22;31.71
74834;BME280;63361;52.384;20.930;2023-09-07T09:26:39;101718.16;;;36.96;28.89
74834;BME280;63361;52.384;20.930;2023-09-07T09:29:04;101718.16;;;36.69;29.37
74834;BME280;63361;52.384;20.930;2023-09-07T09:31:30;101707.50;;;36.34;29.75
74834;BME280;63361;52.384;20.930;2023-09-07T09:33:56;101720.16;;;37.39;28.64
74834;BME280;63361;52.384;20.930;2023-09-07T09:36:21;101702.47;;;36.95;28.96
74834;BME280;63361;52.384;20.930;2023-09-07T09:38:48;101715.75;;;37.14;29.20
74834;BME280;63361;52.384;20.930;2023-09-07T09:41:19;101717.09;;;37.29;28.90
74834;BME280;63361;52.384;20.930;2023-09-07T09:43:46;101700.28;;;37.46;28.90
74834;BME280;63361;52.384;20.930;2023-09-07T09:46:14;101710.31;;;37.86;27.78
74834;BME280;63361;52.384;20.930;2023-09-07T09:48:42;101700.50;;;36.45;29.29
74834;BME280;63361;52.384;20.930;2023-09-07T09:51:07;101715.06;;;35.45;31.13
74834;BME280;63361;52.384;20.930;2023-09-07T09:53:33;101710.44;;;36.26;30.98
74834;BME280;63361;52.384;20.930;2023-09-07T09:55:59;101702.75;;;38.19;28.61
74834;BME280;63361;52.384;20.930;2023-09-07T09:58:25;101710.31;;;39.74;25.70
74834;BME280;63361;52.384;20.930;2023-09-07T10:00:54;101712.72;;;39.88;25.36
74834;BME280;63361;52.384;20.930;2023-09-07T10:03:26;101710.09;;;36.48;28.78
74834;BME280;63361;52.384;20.930;2023-09-07T10:05:53;101710.53;;;36.46;29.60
74834;BME280;63361;52.384;20.930;2023-09-07T10:08:19;101697.44;;;36.36;29.08
74834;BME280;63361;52.384;20.930;2023-09-07T10:10:48;101698.44;;;36.96;28.69
74834;BME280;63361;52.384;20.930;2023-09-07T10:13:14;101696.81;;;37.38;27.29
74834;BME280;63361;52.384;20.930;2023-09-07T10:15:40;101698.44;;;33.51;30.33
74834;BME280;63361;52.384;20.930;2023-09-07T10:18:13;101701.63;;;36.24;28.68
74834;BME280;63361;52.384;20.930;2023-09-07T10:20:54;101700.69;;;35.74;29.27
74834;BME280;63361;52.384;20.930;2023-09-07T10:23:22;101705.34;;;34.71;31.38
74834;BME280;63361;52.384;20.930;2023-09-07T10:25:51;101694.44;;;35.25;30.78
74834;BME280;63361;52.384;20.930;2023-09-07T10:28:18;101690.31;;;37.21;27.98
74834;BME280;63361;52.384;20.930;2023-09-07T10:30:44;101716.19;;;38.64;25.84
74834;BME280;63361;52.384;20.930;2023-09-07T10:33:22;101706.88;;;36.73;27.39
74834;BME280;63361;52.384;20.930;2023-09-07T10:35:47;101704.25;;;35.06;29.04
74834;BME280;63361;52.384;20.930;2023-09-07T10:38:14;101698.94;;;34.71;30.49
74834;BME280;63361;52.384;20.930;2023-09-07T10:40:39;101696.03;;;34.37;30.88
74834;BME280;63361;52.384;20.930;2023-09-07T10:43:06;101688.06;;;35.58;28.28
74834;BME280;63361;52.384;20.930;2023-09-07T10:45:33;101697.44;;;35.45;29.13
74834;BME280;63361;52.384;20.930;2023-09-07T10:47:58;101696.44;;;34.83;29.47
74834;BME280;63361;52.384;20.930;2023-09-07T10:50:24;101695.66;;;35.28;29.49
74834;BME280;63361;52.384;20.930;2023-09-07T10:52:49;101691.97;;;35.65;28.24
74834;BME280;63361;52.384;20.930;2023-09-07T10:55:14;101686.56;;;34.09;30.35
74834;BME280;63361;52.384;20.930;2023-09-07T10:57:44;101672.94;;;32.14;32.57
74834;BME280;63361;52.384;20.930;2023-09-07T11:00:10;101676.59;;;32.89;32.39
74834;BME280;63361;52.384;20.930;2023-09-07T11:02:40;101677.41;;;32.82;31.24
74834;BME280;63361;52.384;20.930;2023-09-07T11:05:06;101688.19;;;32.98;30.32
74834;BME280;63361;52.384;20.930;2023-09-07T11:07:32;101677.00;;;32.98;29.97
74834;BME280;63361;52.384;20.930;2023-09-07T11:09:58;101668.97;;;33.14;29.70
74834;BME280;63361;52.384;20.930;2023-09-07T11:12:23;101664.44;;;33.60;29.47
74834;BME280;63361;52.384;20.930;2023-09-07T11:14:50;101673.63;;;33.57;29.06
74834;BME280;63361;52.384;20.930;2023-09-07T11:17:16;101672.97;;;33.03;28.99
74834;BME280;63361;52.384;20.930;2023-09-07T11:19:41;101684.56;;;32.23;30.85
74834;BME280;63361;52.384;20.930;2023-09-07T11:22:10;101683.69;;;31.11;33.37
74834;BME280;63361;52.384;20.930;2023-09-07T11:24:35;101676.13;;;32.16;32.39
74834;BME280;63361;52.384;20.930;2023-09-07T11:27:01;101664.59;;;32.28;31.22
74834;BME280;63361;52.384;20.930;2023-09-07T11:29:31;101668.97;;;33.07;30.33
74834;BME280;63361;52.384;20.930;2023-09-07T11:32:09;101677.00;;;34.62;28.14
74834;BME280;63361;52.384;20.930;2023-09-07T11:34:35;101676.97;;;34.66;28.26
74834;BME280;63361;52.384;20.930;2023-09-07T11:37:02;101673.25;;;34.31;28.55
74834;BME280;63361;52.384;20.930;2023-09-07T11:39:28;101672.34;;;35.91;25.78
74834;BME280;63361;52.384;20.930;2023-09-07T11:41:54;101672.25;;;37.19;24.60
74834;BME280;63361;52.384;20.930;2023-09-07T11:44:20;101677.63;;;36.16;26.30
74834;BME280;63361;52.384;20.930;2023-09-07T11:46:45;101665.63;;;34.32;27.32
74834;BME280;63361;52.384;20.930;2023-09-07T11:49:10;101667.59;;;33.62;29.46
74834;BME280;63361;52.384;20.930;2023-09-07T11:51:36;101663.81;;;34.04;28.92
74834;BME280;63361;52.384;20.930;2023-09-07T11:54:02;101656.16;;;33.13;29.14
74834;BME280;63361;52.384;20.930;2023-09-07T11:56:27;101652.97;;;33.01;29.18
74834;BME280;63361;52.384;20.930;2023-09-07T11:58:53;101642.25;;;32.32;31.04
74834;BME280;63361;52.384;20.930;2023-09-07T12:01:18;101651.31;;;33.39;29.57
74834;BME280;63361;52.384;20.930;2023-09-07T12:03:43;101658.13;;;33.24;29.19
74834;BME280;63361;52.384;20.930;2023-09-07T12:06:09;101647.66;;;33.49;28.98
74834;BME280;63361;52.384;20.930;2023-09-07T12:08:36;101654.13;;;34.08;27.97
74834;BME280;63361;52.384;20.930;2023-09-07T12:11:02;101661.78;;;35.42;25.33
74834;BME280;63361;52.384;20.930;2023-09-07T12:13:27;101659.69;;;35.46;26.55
74834;BME280;63361;52.384;20.930;2023-09-07T12:15:53;101649.78;;;36.22;25.15
74834;BME280;63361;52.384;20.930;2023-09-07T12:18:18;101654.69;;;35.60;25.53
74834;BME280;63361;52.384;20.930;2023-09-07T12:20:43;101650.94;;;33.30;28.13
74834;BME280;63361;52.384;20.930;2023-09-07T12:23:10;101644.56;;;33.26;28.60
74834;BME280;63361;52.384;20.930;2023-09-07T12:25:35;101649.56;;;33.70;28.29
74834;BME280;63361;52.384;20.930;2023-09-07T12:28:02;101646.53;;;33.22;28.82
74834;BME280;63361;52.384;20.930;2023-09-07T12:30:27;101646.06;;;34.69;27.07